Time;durP1;ratioP1;P1;durP2;ratioP2;P2;SDS_P1;SDS_P2;PMS_P1;PMS_P2;Temp;Humidity;BMP_temperature;BMP_pressure;BME280_temperature;BME280_humidity;BME280_pressure;Samples;Min_cycle;Max_cycle;Signal;HPM_P1;HPM_P2
2021/04/28 00:02:25;;;;;;;11.15;8.23;;;;;;;8.08;62.12;94684.63;5034697;28;20140;-46
2021/04/28 00:04:52;;;;;;;13.13;8.30;;;;;;;7.90;62.96;94678.00;5032920;28;20053;-49
2021/04/28 00:07:19;;;;;;;10.63;8.25;;;;;;;7.77;61.95;94688.06;5033190;28;20083;-51
2021/04/28 00:09:45;;;;;;;12.98;8.73;;;;;;;7.84;62.44;94676.69;5051634;28;20045;-50
2021/04/28 00:12:12;;;;;;;12.13;8.23;;;;;;;8.26;60.17;94673.53;5053015;28;20045;-50
2021/04/28 00:14:38;;;;;;;13.30;8.80;;;;;;;8.33;60.10;94681.78;5035741;28;20046;-51
2021/04/28 00:17:05;;;;;;;11.70;8.70;;;;;;;8.42;59.68;94682.41;5033317;28;20057;-47
2021/04/28 00:19:31;;;;;;;10.55;8.30;;;;;;;8.87;57.84;94675.72;5033266;28;20558;-47
2021/04/28 00:21:58;;;;;;;11.75;8.85;;;;;;;8.25;61.05;94678.09;5036053;28;20049;-49
2021/04/28 00:24:25;;;;;;;10.50;8.05;;;;;;;7.77;63.13;94679.19;5052790;28;20390;-49
2021/04/28 00:26:52;;;;;;;11.10;8.45;;;;;;;7.64;62.56;94667.72;5051982;28;20064;-51
2021/04/28 00:29:18;;;;;;;13.90;9.05;;;;;;;7.59;63.55;94674.09;5053041;28;20102;-50
2021/04/28 00:31:45;;;;;;;11.63;8.65;;;;;;;7.87;62.15;94662.53;5049981;28;20111;-50
2021/04/28 00:34:11;;;;;;;12.48;9.20;;;;;;;8.17;60.58;94671.00;5031779;28;20068;-49
2021/04/28 00:36:38;;;;;;;15.13;8.85;;;;;;;7.93;62.29;94669.25;5032982;28;20050;-50
2021/04/28 00:39:05;;;;;;;13.18;8.50;;;;;;;8.23;60.98;94668.81;5031449;28;20419;-53
2021/04/28 00:41:32;;;;;;;12.38;9.27;;;;;;;7.99;61.50;94664.38;5041102;28;20047;-50
2021/04/28 00:43:59;;;;;;;15.13;8.32;;;;;;;8.07;61.42;94674.97;5047515;28;20049;-50
2021/04/28 00:46:25;;;;;;;11.75;8.98;;;;;;;7.84;63.08;94668.63;5052609;28;20048;-51
2021/04/28 00:48:52;;;;;;;11.90;9.15;;;;;;;8.17;61.12;94676.38;5052815;28;20064;-48
2021/04/28 00:51:19;;;;;;;12.60;9.23;;;;;;;7.98;62.72;94668.97;5052929;28;20049;-50
2021/04/28 00:53:46;;;;;;;11.52;9.13;;;;;;;7.53;63.64;94670.09;5039827;28;20059;-50
2021/04/28 00:56:13;;;;;;;13.05;8.98;;;;;;;7.51;64.16;94666.97;5032368;28;20084;-51
2021/04/28 00:58:40;;;;;;;11.95;8.95;;;;;;;7.46;63.56;94675.28;5032749;28;20049;-48
2021/04/28 01:01:06;;;;;;;11.07;8.52;;;;;;;7.48;63.40;94667.66;5032468;28;20099;-50
2021/04/28 01:03:34;;;;;;;13.45;8.50;;;;;;;8.20;60.47;94664.91;5032165;28;20552;-47
2021/04/28 01:06:04;;;;;;;13.38;9.10;;;;;;;7.62;64.05;94662.66;5031346;28;20134;-48
2021/04/28 01:08:31;;;;;;;11.38;9.10;;;;;;;8.10;61.17;94662.72;5032072;28;20441;-47
2021/04/28 01:10:58;;;;;;;12.57;8.48;;;;;;;7.72;62.48;94664.84;5032459;28;20140;-48
2021/04/28 01:13:24;;;;;;;12.25;8.63;;;;;;;8.29;59.86;94667.44;5034214;28;20050;-48
2021/04/28 01:15:52;;;;;;;11.27;8.65;;;;;;;7.40;63.78;94663.19;5032246;28;20071;-49
2021/04/28 01:18:20;;;;;;;12.63;8.77;;;;;;;7.23;64.54;94656.97;5032220;28;20049;-47
2021/04/28 01:20:47;;;;;;;12.07;8.93;;;;;;;7.94;60.99;94657.34;5032319;28;20077;-47
2021/04/28 01:23:16;;;;;;;12.60;9.07;;;;;;;7.54;62.78;94663.59;5045952;28;20478;-47
2021/04/28 01:25:45;;;;;;;9.77;8.52;;;;;;;7.33;64.56;94657.63;5030581;28;20502;-47
2021/04/28 01:28:15;;;;;;;12.02;9.38;;;;;;;7.15;65.65;94655.22;5032103;28;20053;-51
2021/04/28 01:31:02;;;;;;;10.88;8.43;;;;;;;6.90;66.14;94664.47;5031932;28;20046;-48
2021/04/28 01:33:54;;;;;;;13.02;9.13;;;;;;;7.10;65.61;94663.53;5028896;28;20143;-47
2021/04/28 01:36:27;;;;;;;12.30;9.13;;;;;;;6.93;66.00;94658.44;5030484;28;20053;-49
2021/04/28 01:38:57;;;;;;;10.63;8.80;;;;;;;6.89;66.65;94662.91;5047202;28;20056;-50
2021/04/28 01:41:26;;;;;;;13.63;8.73;;;;;;;7.00;64.92;94662.09;5040058;28;20041;-46
2021/04/28 01:43:56;;;;;;;12.48;8.70;;;;;;;7.52;62.79;94657.78;5046102;28;20045;-52
2021/04/28 01:46:27;;;;;;;12.57;9.80;;;;;;;7.91;61.22;94652.63;5051312;28;20045;-49
2021/04/28 01:48:56;;;;;;;14.97;9.13;;;;;;;7.05;65.93;94665.66;5034321;28;20560;-49
2021/04/28 01:51:29;;;;;;;12.85;9.40;;;;;;;7.67;62.16;94665.13;5040129;28;20068;-48
2021/04/28 01:53:56;;;;;;;14.52;10.02;;;;;;;7.80;61.55;94656.94;5031577;28;20068;-47
2021/04/28 01:56:23;;;;;;;13.57;9.82;;;;;;;7.55;62.63;94662.47;5031965;28;20053;-47
2021/04/28 01:59:19;;;;;;;11.68;9.35;;;;;;;6.92;65.58;94664.91;5031892;28;20179;-47
2021/04/28 02:02:13;;;;;;;12.90;9.55;;;;;;;6.70;66.23;94666.97;5030632;28;20506;-50
2021/04/28 02:04:44;;;;;;;12.57;9.30;;;;;;;7.48;62.81;94662.28;5031821;28;20049;-48
2021/04/28 02:07:14;;;;;;;13.60;9.13;;;;;;;7.13;64.85;94657.47;5030976;28;20073;-49
2021/04/28 02:09:41;;;;;;;14.82;9.70;;;;;;;6.81;67.14;94658.44;5031840;28;20107;-46
2021/04/28 02:12:15;;;;;;;13.98;9.38;;;;;;;6.95;65.33;94656.16;5030349;28;20065;-46
2021/04/28 02:14:49;;;;;;;13.55;9.70;;;;;;;7.41;62.99;94664.75;5030898;28;20046;-46
2021/04/28 02:17:24;;;;;;;13.95;9.23;;;;;;;7.05;65.64;94650.31;5031516;28;20422;-46
2021/04/28 02:19:56;;;;;;;16.90;9.80;;;;;;;6.78;66.51;94652.63;5031622;28;20056;-46
2021/04/28 02:22:28;;;;;;;13.07;9.65;;;;;;;6.90;65.68;94649.13;5048374;28;20049;-45
2021/04/28 02:25:21;;;;;;;14.25;10.18;;;;;;;7.31;63.87;94651.78;5049800;28;20049;-48
2021/04/28 02:28:02;;;;;;;16.38;9.98;;;;;;;7.25;64.25;94654.75;5050027;28;20087;-49
2021/04/28 02:30:32;;;;;;;14.40;9.93;;;;;;;7.52;62.74;94652.38;5032736;28;20051;-48
2021/04/28 02:33:00;;;;;;;16.10;10.57;;;;;;;7.39;62.64;94646.28;5029369;28;20049;-48
2021/04/28 02:35:45;;;;;;;12.52;10.00;;;;;;;7.22;63.34;94650.03;5031149;28;20087;-49
2021/04/28 02:38:41;;;;;;;13.82;10.35;;;;;;;6.78;65.09;94641.09;5037285;28;20057;-48
2021/04/28 02:41:15;;;;;;;14.10;10.02;;;;;;;6.96;64.79;94645.09;5049734;28;20438;-48
2021/04/28 02:43:45;;;;;;;17.25;11.43;;;;;;;7.22;63.62;94644.66;5048822;28;20041;-48
2021/04/28 02:46:18;;;;;;;13.70;11.17;;;;;;;6.58;66.86;94642.78;5049755;28;20056;-51
2021/04/28 02:48:51;;;;;;;14.68;11.43;;;;;;;6.27;68.21;94638.81;5049808;28;20773;-49
2021/04/28 02:51:41;;;;;;;14.55;10.68;;;;;;;7.03;65.33;94642.59;5027012;28;20593;-49
2021/04/28 02:54:28;;;;;;;15.07;11.20;;;;;;;6.99;64.84;94632.88;5030929;28;20061;-50
2021/04/28 02:56:55;;;;;;;14.35;10.18;;;;;;;6.39;67.74;94634.53;5030681;28;20054;-48
2021/04/28 02:59:23;;;;;;;17.60;11.35;;;;;;;6.07;69.53;94634.28;5031187;28;20053;-48
2021/04/28 03:01:51;;;;;;;15.75;11.48;;;;;;;6.61;67.17;94635.97;5030628;28;20137;-48
2021/04/28 03:04:20;;;;;;;17.05;11.50;;;;;;;6.91;65.59;94633.78;5031021;28;20395;-50
2021/04/28 03:07:13;;;;;;;19.98;11.80;;;;;;;6.64;67.21;94635.28;5011537;28;20085;-49
2021/04/28 03:09:44;;;;;;;15.63;11.60;;;;;;;6.10;70.22;94639.00;5039033;28;20045;-48
2021/04/28 03:12:12;;;;;;;15.95;10.90;;;;;;;6.27;69.46;94628.06;5045801;28;20060;-49
2021/04/28 03:14:46;;;;;;;17.92;11.52;;;;;;;6.81;66.15;94639.63;5029184;28;20054;-49
2021/04/28 03:17:13;;;;;;;15.93;11.60;;;;;;;6.94;65.65;94627.72;5031059;28;20049;-48
2021/04/28 03:19:41;;;;;;;14.88;11.15;;;;;;;6.40;67.38;94630.72;5029744;28;20111;-50
2021/04/28 03:22:07;;;;;;;14.35;11.40;;;;;;;6.73;66.10;94633.28;5033719;28;20139;-50
2021/04/28 03:24:35;;;;;;;19.08;12.25;;;;;;;6.45;68.33;94630.50;5034340;28;20050;-49
2021/04/28 03:27:10;;;;;;;26.55;13.50;;;;;;;6.73;66.72;94635.97;5034601;28;20060;-49
2021/04/28 03:29:44;;;;;;;20.88;12.15;;;;;;;7.03;64.93;94628.38;5033428;28;20087;-48
2021/04/28 03:32:11;;;;;;;23.38;12.75;;;;;;;6.46;67.41;94635.53;5034288;28;20483;-51
2021/04/28 03:34:43;;;;;;;24.40;13.02;;;;;;;6.04;70.15;94633.06;5033629;28;20059;-47
2021/04/28 03:37:11;;;;;;;21.35;12.18;;;;;;;6.38;68.65;94639.13;5049466;28;20053;-48
2021/04/28 03:39:43;;;;;;;17.95;11.48;;;;;;;5.85;71.22;94633.59;5032885;28;20625;-49
2021/04/28 03:42:10;;;;;;;19.95;12.43;;;;;;;5.66;71.51;94636.00;5044962;28;20057;-48
2021/04/28 03:44:38;;;;;;;17.35;12.85;;;;;;;5.66;71.38;94629.88;5052162;28;20047;-51
2021/04/28 03:47:05;;;;;;;19.73;12.10;;;;;;;5.84;70.88;94632.00;5052663;28;20052;-48
2021/04/28 03:49:35;;;;;;;22.02;12.50;;;;;;;5.65;71.98;94639.00;5052659;28;20049;-47
2021/04/28 03:52:02;;;;;;;20.05;12.95;;;;;;;6.30;69.48;94643.50;5049132;28;20045;-49
2021/04/28 03:54:48;;;;;;;18.60;12.48;;;;;;;5.91;70.51;94641.41;5034096;28;20048;-48
2021/04/28 03:57:14;;;;;;;17.08;12.63;;;;;;;6.30;68.91;94638.13;5032459;28;20107;-49
2021/04/28 03:59:42;;;;;;;16.48;12.95;;;;;;;5.86;70.90;94640.50;5033686;28;20095;-47
2021/04/28 04:02:08;;;;;;;19.98;12.93;;;;;;;5.98;70.44;94641.66;5031908;28;20054;-49
2021/04/28 04:04:54;;;;;;;20.25;13.93;;;;;;;5.93;71.00;94639.22;5034078;28;20558;-48
2021/04/28 04:07:39;;;;;;;17.08;12.90;;;;;;;5.94;70.51;94635.41;5033930;28;20442;-48
2021/04/28 04:10:21;;;;;;;19.15;12.82;;;;;;;6.69;67.05;94641.19;5033928;28;20459;-46
2021/04/28 04:12:47;;;;;;;23.23;14.57;;;;;;;6.69;66.53;94640.41;5033158;28;20403;-45
2021/04/28 04:15:14;;;;;;;20.05;13.73;;;;;;;6.11;69.25;94645.97;5048751;28;20077;-46
2021/04/28 04:17:40;;;;;;;20.60;12.75;;;;;;;6.65;66.99;94642.22;5033544;28;20041;-48
2021/04/28 04:20:19;;;;;;;22.88;12.63;;;;;;;6.82;65.97;94644.66;5032161;28;20053;-49
2021/04/28 04:22:55;;;;;;;19.48;12.55;;;;;;;6.52;67.64;94638.78;5034026;28;20041;-49
2021/04/28 04:25:42;;;;;;;18.23;13.10;;;;;;;6.42;68.63;94639.22;5002373;28;20053;-48
2021/04/28 04:28:14;;;;;;;15.98;12.27;;;;;;;6.58;67.72;94642.78;5032033;28;20052;-47
2021/04/28 04:31:00;;;;;;;18.42;13.30;;;;;;;6.21;70.35;94650.88;5018267;28;20068;-49
2021/04/28 04:33:45;;;;;;;19.02;12.85;;;;;;;6.00;71.83;94642.13;5032650;28;20056;-51
2021/04/28 04:36:32;;;;;;;17.05;12.98;;;;;;;6.01;71.44;94641.81;5044973;28;20064;-49
2021/04/28 04:39:31;;;;;;;18.67;12.13;;;;;;;6.22;70.47;94648.97;5009058;28;20143;-49
2021/04/28 04:42:25;;;;;;;18.60;13.32;;;;;;;6.61;68.88;94641.34;5043633;28;20056;-52
2021/04/28 04:44:57;;;;;;;24.27;12.65;;;;;;;7.07;66.50;94645.38;5031841;28;20410;-49
2021/04/28 04:47:24;;;;;;;17.83;12.70;;;;;;;7.19;65.79;94639.19;5030817;28;20115;-49
2021/04/28 04:49:50;;;;;;;18.00;12.13;;;;;;;7.03;66.75;94647.19;5032254;28;20092;-49
2021/04/28 04:52:19;;;;;;;15.88;12.13;;;;;;;6.60;68.64;94650.50;5028835;28;20053;-47
2021/04/28 04:54:46;;;;;;;16.58;12.02;;;;;;;6.79;67.91;94651.50;5049542;28;20041;-47
2021/04/28 04:57:12;;;;;;;14.90;11.80;;;;;;;6.76;67.22;94654.88;5051087;28;20056;-48
2021/04/28 04:59:38;;;;;;;17.42;12.00;;;;;;;7.31;65.33;94662.56;5051871;28;20413;-50
2021/04/28 05:02:05;;;;;;;19.23;12.73;;;;;;;7.00;66.69;94654.03;5050210;28;20410;-47
2021/04/28 05:04:32;;;;;;;22.02;12.68;;;;;;;6.95;67.77;94651.56;5050856;28;20049;-50
2021/04/28 05:06:58;;;;;;;16.58;12.15;;;;;;;6.60;69.26;94650.50;5050475;28;20056;-48
2021/04/28 05:09:25;;;;;;;18.23;12.18;;;;;;;6.51;69.30;94647.97;5052069;28;20099;-48
2021/04/28 05:11:52;;;;;;;15.18;11.18;;;;;;;7.02;66.79;94641.03;5048656;28;20057;-48
2021/04/28 05:14:18;;;;;;;16.33;12.43;;;;;;;6.74;69.56;94646.34;5032005;28;20053;-52
2021/04/28 05:16:47;;;;;;;14.88;11.65;;;;;;;6.71;68.65;94648.94;5031450;28;20088;-50
2021/04/28 05:19:14;;;;;;;18.98;13.18;;;;;;;6.81;67.95;94655.75;5031495;28;20056;-50
2021/04/28 05:21:40;;;;;;;16.88;12.13;;;;;;;6.87;66.90;94657.09;5029927;28;20053;-48
2021/04/28 05:24:08;;;;;;;15.13;12.35;;;;;;;7.04;67.56;94651.44;5030962;28;20470;-48
2021/04/28 05:26:53;;;;;;;14.77;12.18;;;;;;;7.53;65.29;94651.25;5030623;28;20037;-49
2021/04/28 05:29:20;;;;;;;15.90;11.35;;;;;;;7.42;65.71;94650.97;5031802;28;20490;-48
2021/04/28 05:31:46;;;;;;;14.68;12.43;;;;;;;8.07;62.93;94656.13;5030191;28;20515;-53
2021/04/28 05:34:13;;;;;;;23.70;12.93;;;;;;;7.67;64.51;94648.97;5038788;28;20064;-51
2021/04/28 05:36:40;;;;;;;15.50;11.38;;;;;;;7.44;65.27;94650.63;5051336;28;20110;-51
2021/04/28 05:39:06;;;;;;;15.55;11.57;;;;;;;7.54;66.00;94655.53;5050912;28;20069;-52
2021/04/28 05:41:33;;;;;;;15.80;11.95;;;;;;;7.58;64.42;94651.03;5049818;28;20513;-48
2021/04/28 05:44:00;;;;;;;15.65;11.73;;;;;;;7.87;64.12;94649.06;5038402;28;20514;-50
2021/04/28 05:46:26;;;;;;;18.42;12.02;;;;;;;7.97;62.60;94645.88;5049747;28;20073;-50
2021/04/28 05:48:53;;;;;;;18.20;12.05;;;;;;;8.19;62.99;94656.03;5051100;28;20060;-49
2021/04/28 05:51:20;;;;;;;15.95;12.20;;;;;;;8.01;62.73;94652.13;5051172;28;20060;-48
2021/04/28 05:53:46;;;;;;;18.05;12.23;;;;;;;8.18;62.81;94649.06;5046892;28;20137;-51
2021/04/28 05:56:13;;;;;;;15.63;12.18;;;;;;;8.10;63.35;94644.66;5051495;28;20095;-49
2021/04/28 05:58:39;;;;;;;14.82;12.15;;;;;;;7.99;63.02;94643.59;5051872;28;20076;-46
2021/04/28 06:01:06;;;;;;;16.63;12.40;;;;;;;7.94;63.62;94633.88;5050387;28;20147;-48
2021/04/28 06:03:33;;;;;;;16.83;12.27;;;;;;;8.14;63.20;94642.03;5036210;28;20144;-47
2021/04/28 06:06:00;;;;;;;16.60;12.25;;;;;;;8.24;62.79;94644.22;5049503;28;20131;-49
2021/04/28 06:08:26;;;;;;;18.58;12.27;;;;;;;8.44;62.31;94637.00;5050947;28;20049;-50
2021/04/28 06:10:53;;;;;;;17.20;12.98;;;;;;;8.53;62.33;94640.31;5044242;28;20058;-48
2021/04/28 06:13:19;;;;;;;17.92;12.27;;;;;;;8.44;61.73;94637.00;5035754;28;20498;-48
2021/04/28 06:15:46;;;;;;;16.73;12.55;;;;;;;8.76;62.43;94636.97;5049115;28;20052;-48
2021/04/28 06:18:12;;;;;;;21.65;13.57;;;;;;;9.26;59.50;94638.00;5049717;28;20049;-50
2021/04/28 06:20:39;;;;;;;16.75;12.93;;;;;;;8.79;62.49;94634.34;5049681;28;20075;-49
2021/04/28 06:23:05;;;;;;;21.58;13.38;;;;;;;9.08;59.78;94637.66;5033522;28;20053;-51
2021/04/28 06:25:32;;;;;;;19.77;12.35;;;;;;;9.01;60.37;94635.59;5050537;28;20144;-49
2021/04/28 06:27:58;;;;;;;18.58;12.52;;;;;;;9.07;60.32;94636.88;5047745;28;20052;-50
2021/04/28 06:30:25;;;;;;;18.20;12.10;;;;;;;9.68;58.30;94645.38;5058270;28;20202;-49
2021/04/28 06:32:51;;;;;;;22.25;12.82;;;;;;;9.28;60.10;94636.50;5070271;28;20332;-49
2021/04/28 06:35:18;;;;;;;18.45;12.50;;;;;;;9.03;60.76;94648.69;5055202;28;20163;-50
2021/04/28 06:37:45;;;;;;;17.17;12.70;;;;;;;8.99;62.73;94648.63;5049525;28;20048;-48
2021/04/28 06:40:13;;;;;;;17.88;12.68;;;;;;;9.21;60.44;94644.47;5050273;28;20048;-48
2021/04/28 06:42:39;;;;;;;16.13;12.43;;;;;;;9.44;59.14;94647.25;5049274;28;20149;-47
2021/04/28 06:45:07;;;;;;;15.30;12.48;;;;;;;9.56;58.81;94649.78;5030520;28;20127;-50
2021/04/28 06:47:34;;;;;;;15.80;12.63;;;;;;;9.91;57.96;94648.91;5039171;28;20053;-51
2021/04/28 06:50:01;;;;;;;21.83;12.55;;;;;;;9.31;60.65;94645.81;5044342;28;20060;-48
2021/04/28 06:52:28;;;;;;;19.98;14.30;;;;;;;9.42;59.86;94643.31;5042479;28;20053;-48
2021/04/28 06:54:54;;;;;;;18.38;11.90;;;;;;;9.53;60.98;94645.09;5040247;28;20132;-49
2021/04/28 06:57:41;;;;;;;15.27;12.07;;;;;;;9.87;58.63;94642.63;5050852;28;20532;-48
2021/04/28 07:00:08;;;;;;;18.30;12.20;;;;;;;9.99;58.38;94644.41;5045058;28;20049;-48
2021/04/28 07:02:34;;;;;;;17.90;13.20;;;;;;;9.71;58.55;94650.06;5053997;28;20449;-51
2021/04/28 07:05:01;;;;;;;16.42;11.75;;;;;;;9.65;60.82;94648.78;5053006;28;20498;-48
2021/04/28 07:07:27;;;;;;;20.02;12.32;;;;;;;9.91;57.85;94651.59;5052304;28;20391;-48
2021/04/28 07:09:54;;;;;;;18.35;12.95;;;;;;;10.08;57.02;94650.34;5051785;28;20075;-48
2021/04/28 07:12:20;;;;;;;15.07;12.40;;;;;;;10.34;56.04;94655.06;5052802;28;20056;-48
2021/04/28 07:14:47;;;;;;;17.63;12.13;;;;;;;10.04;58.04;94658.41;5051303;28;20449;-48
2021/04/28 07:17:13;;;;;;;16.17;12.15;;;;;;;10.14;57.18;94657.03;5052687;28;20052;-48
2021/04/28 07:19:39;;;;;;;18.30;12.27;;;;;;;10.18;58.36;94654.38;5053501;28;20080;-51
2021/04/28 07:22:06;;;;;;;14.50;11.63;;;;;;;10.79;55.44;94661.56;5048533;28;20045;-49
2021/04/28 07:24:32;;;;;;;16.88;12.77;;;;;;;10.62;56.72;94662.06;5053097;28;20100;-48
2021/04/28 07:26:59;;;;;;;17.10;12.60;;;;;;;10.63;57.64;94660.94;5054167;28;20170;-48
2021/04/28 07:29:25;;;;;;;18.17;11.63;;;;;;;10.78;56.93;94665.38;5053104;28;20048;-49
2021/04/28 07:31:52;;;;;;;14.27;11.45;;;;;;;11.26;55.03;94667.59;5050883;28;20071;-47
2021/04/28 07:34:19;;;;;;;17.55;11.75;;;;;;;11.26;55.71;94660.25;5053324;28;20044;-47
2021/04/28 07:36:45;;;;;;;23.50;13.85;;;;;;;11.28;53.66;94666.09;5053660;28;20052;-47
2021/04/28 07:39:12;;;;;;;17.30;12.55;;;;;;;11.32;53.85;94660.72;5041506;28;20140;-48
2021/04/28 07:41:38;;;;;;;17.13;11.73;;;;;;;11.17;54.22;94663.22;5046017;28;20045;-49
2021/04/28 07:44:05;;;;;;;19.40;12.27;;;;;;;11.39;53.79;94666.22;5050181;28;20135;-49
2021/04/28 07:46:33;;;;;;;17.77;12.23;;;;;;;11.74;53.56;94659.66;5053655;28;20067;-49
2021/04/28 07:49:04;;;;;;;15.35;12.45;;;;;;;11.84;54.15;94665.22;5052958;28;20045;-50
2021/04/28 07:51:35;;;;;;;16.98;12.65;;;;;;;11.93;54.60;94659.53;5052104;28;20072;-52
2021/04/28 07:54:09;;;;;;;16.88;11.43;;;;;;;11.62;54.97;94663.41;5045620;28;20044;-52
2021/04/28 07:56:35;;;;;;;16.23;11.90;;;;;;;11.87;53.36;94669.13;5048646;28;20049;-48
2021/04/28 07:59:02;;;;;;;16.23;11.77;;;;;;;11.71;52.88;94661.19;5053141;28;20052;-48
2021/04/28 08:01:29;;;;;;;16.05;11.98;;;;;;;11.74;54.06;94663.16;5051731;28;20048;-49
2021/04/28 08:03:55;;;;;;;15.18;11.82;;;;;;;11.99;52.81;94668.06;5046603;28;20102;-50
2021/04/28 08:06:21;;;;;;;18.13;12.55;;;;;;;11.80;53.43;94663.63;5052695;28;20049;-49
2021/04/28 08:08:48;;;;;;;16.95;12.05;;;;;;;11.89;53.14;94667.63;5051784;28;20454;-49
2021/04/28 08:11:15;;;;;;;15.63;11.45;;;;;;;11.78;53.05;94660.47;5045750;28;20479;-51
2021/04/28 08:13:41;;;;;;;15.68;11.93;;;;;;;11.97;52.83;94656.84;5048221;28;20429;-50
2021/04/28 08:16:08;;;;;;;19.08;12.05;;;;;;;11.92;52.93;94664.13;5052082;28;20595;-50
2021/04/28 08:18:35;;;;;;;15.30;12.55;;;;;;;11.99;52.70;94659.94;5053558;28;20492;-50
2021/04/28 08:21:02;;;;;;;18.25;12.00;;;;;;;11.79;53.09;94657.38;5050226;28;20060;-48
2021/04/28 08:23:31;;;;;;;15.88;11.35;;;;;;;11.84;53.83;94665.22;5051968;28;20140;-52
2021/04/28 08:26:02;;;;;;;17.17;11.93;;;;;;;12.07;52.98;94661.59;5054149;28;20045;-51
2021/04/28 08:28:29;;;;;;;17.13;12.05;;;;;;;11.93;53.00;94660.28;5053488;28;20056;-49
2021/04/28 08:30:56;;;;;;;17.02;12.18;;;;;;;12.27;51.55;94657.50;5050757;28;20044;-46
2021/04/28 08:33:23;;;;;;;15.77;11.90;;;;;;;12.50;51.45;94661.97;5051702;28;20052;-52
2021/04/28 08:35:49;;;;;;;16.85;12.73;;;;;;;12.60;51.03;94663.97;5052577;28;20049;-51
2021/04/28 08:38:16;;;;;;;17.45;12.15;;;;;;;12.48;51.23;94664.25;5052225;28;20045;-48
2021/04/28 08:40:43;;;;;;;14.43;12.65;;;;;;;12.68;50.30;94662.91;5052127;28;20041;-48
2021/04/28 08:43:09;;;;;;;16.52;12.73;;;;;;;12.81;50.31;94666.88;5051319;28;20045;-48
2021/04/28 08:45:36;;;;;;;14.63;11.40;;;;;;;12.85;50.86;94662.22;5051862;28;20049;-49
2021/04/28 08:48:02;;;;;;;14.90;11.93;;;;;;;12.86;49.13;94660.28;5053657;28;20055;-48
2021/04/28 08:50:28;;;;;;;22.48;12.02;;;;;;;13.07;49.67;94665.88;5051777;28;20045;-49
2021/04/28 08:52:55;;;;;;;14.18;12.75;;;;;;;13.00;49.09;94660.41;5036095;28;20479;-50
2021/04/28 08:55:22;;;;;;;15.70;11.68;;;;;;;12.92;50.48;94664.22;5045648;28;20052;-49
2021/04/28 08:57:48;;;;;;;15.45;12.07;;;;;;;12.93;50.28;94665.75;5050948;28;20056;-51
2021/04/28 09:00:15;;;;;;;18.38;12.60;;;;;;;12.94;49.38;94661.16;5051743;28;20464;-48
2021/04/28 09:02:56;;;;;;;15.98;10.98;;;;;;;12.98;49.71;94651.06;5051131;28;20041;-51
2021/04/28 09:05:23;;;;;;;14.00;11.98;;;;;;;13.15;49.93;94650.38;5053130;28;20068;-49
2021/04/28 09:07:50;;;;;;;16.25;12.68;;;;;;;13.30;48.91;94654.78;5050026;28;20144;-50
2021/04/28 09:10:19;;;;;;;15.98;11.65;;;;;;;13.57;47.99;94651.78;5049920;28;20057;-48
2021/04/28 09:13:06;;;;;;;15.38;11.52;;;;;;;13.75;48.25;94647.19;5049997;28;20059;-48
2021/04/28 09:15:40;;;;;;;17.73;11.93;;;;;;;13.80;47.69;94637.88;5032347;28;20486;-49
2021/04/28 09:18:12;;;;;;;17.90;12.13;;;;;;;13.50;48.60;94649.03;5031879;28;20054;-50
2021/04/28 09:21:12;;;;;;;14.07;11.82;;;;;;;13.52;48.98;94641.31;5009708;28;20534;-48
2021/04/28 09:24:18;;;;;;;17.02;11.32;;;;;;;13.69;48.73;94643.28;5041501;28;20067;-47
2021/04/28 09:27:37;;;;;;;20.88;12.38;;;;;;;13.91;47.39;94644.16;5039119;28;20057;-48
2021/04/28 09:30:36;;;;;;;17.02;11.07;;;;;;;14.27;45.79;94638.75;5037586;28;20052;-49
2021/04/28 09:33:04;;;;;;;14.45;11.52;;;;;;;14.16;46.13;94641.44;5049723;28;20048;-52
2021/04/28 09:35:30;;;;;;;19.38;11.77;;;;;;;14.43;45.58;94636.44;5047137;28;20122;-50
2021/04/28 09:38:01;;;;;;;18.95;11.07;;;;;;;14.14;46.14;94632.16;5050963;28;20049;-50
2021/04/28 09:40:43;;;;;;;15.05;11.25;;;;;;;14.52;45.02;94632.56;5052707;22;20064;-48
2021/04/28 09:43:11;;;;;;;15.77;10.63;;;;;;;14.91;44.28;94627.88;5022179;28;20045;-47
2021/04/28 09:45:38;;;;;;;14.43;11.13;;;;;;;15.00;44.30;94626.69;5028275;28;20037;-49
2021/04/28 09:48:06;;;;;;;15.55;12.05;;;;;;;14.95;45.50;94633.34;5048448;28;20399;-49
2021/04/28 09:50:32;;;;;;;21.15;11.45;;;;;;;15.26;44.20;94630.91;5040401;28;20119;-46
2021/04/28 09:53:00;;;;;;;16.98;11.85;;;;;;;15.14;42.39;94629.38;5019676;28;20045;-46
2021/04/28 09:55:27;;;;;;;16.30;12.07;;;;;;;15.07;43.52;94630.19;5030868;28;20052;-46
2021/04/28 09:57:54;;;;;;;17.17;11.70;;;;;;;14.91;44.16;94627.09;5030431;28;20053;-49
2021/04/28 10:00:30;;;;;;;14.13;11.95;;;;;;;15.11;42.75;94624.72;5027415;28;20141;-47
2021/04/28 10:03:02;;;;;;;15.85;11.23;;;;;;;15.31;41.75;94623.13;5010561;28;20057;-47
2021/04/28 10:05:30;;;;;;;12.18;10.32;;;;;;;15.25;42.62;94619.25;5010612;28;20081;-46
2021/04/28 10:08:23;;;;;;;15.05;11.00;;;;;;;15.69;40.69;94625.31;5010339;28;20153;-48
2021/04/28 10:10:52;;;;;;;;;;;;;;;15.73;41.71;94623.34;5010960;28;20365;-45
2021/04/28 10:13:19;;;;;;;14.90;11.70;;;;;;;15.87;40.86;94626.81;5009521;28;20401;-49
2021/04/28 10:15:46;;;;;;;15.90;11.30;;;;;;;15.91;39.83;94618.59;4993396;28;20530;-46
2021/04/28 10:18:14;;;;;;;15.70;11.48;;;;;;;15.89;40.21;94605.38;5009550;28;20049;-47
2021/04/28 10:20:43;;;;;;;14.52;10.73;;;;;;;15.91;42.64;94604.97;5010223;28;20101;-49
2021/04/28 10:23:13;;;;;;;15.32;11.32;;;;;;;15.87;41.40;94604.22;5029524;28;20541;-49
2021/04/28 10:25:41;;;;;;;13.23;10.80;;;;;;;16.04;40.59;94605.28;5029867;28;20518;-48
2021/04/28 10:28:10;;;;;;;14.07;10.60;;;;;;;16.26;39.42;94608.63;5030235;28;20060;-48
2021/04/28 10:30:41;;;;;;;12.43;10.38;;;;;;;16.10;39.78;94612.63;5023852;28;20539;-49
2021/04/28 10:33:14;;;;;;;16.52;10.98;;;;;;;16.27;40.05;94604.72;5014049;28;20046;-48
2021/04/28 10:35:41;;;;;;;11.95;10.73;;;;;;;16.37;38.69;94612.06;5015127;28;20458;-47
2021/04/28 10:38:10;;;;;;;13.95;10.25;;;;;;;16.07;37.68;94607.19;5015116;28;20046;-47
2021/04/28 10:40:37;;;;;;;15.60;10.23;;;;;;;16.37;37.96;94606.59;4997766;28;20486;-47
2021/04/28 10:43:09;;;;;;;15.13;10.35;;;;;;;16.60;38.90;94595.09;4997394;28;20041;-49
2021/04/28 10:45:38;;;;;;;13.25;10.82;;;;;;;17.28;39.21;94605.38;4997825;28;20079;-47
2021/04/28 10:48:41;;;;;;;14.52;10.65;;;;;;;17.28;35.38;94597.97;4995109;28;20533;-47
2021/04/28 10:51:08;;;;;;;15.10;10.68;;;;;;;16.96;38.44;94603.75;5013509;28;20067;-50
2021/04/28 10:53:35;;;;;;;15.65;10.40;;;;;;;16.98;36.60;94598.69;4996609;28;20053;-47
2021/04/28 10:56:12;;;;;;;14.63;10.43;;;;;;;16.86;35.10;94596.44;5014265;28;20056;-47
2021/04/28 10:58:41;;;;;;;17.77;9.48;;;;;;;17.13;35.50;94593.84;5014282;28;20046;-48
2021/04/28 11:01:22;;;;;;;11.25;9.20;;;;;;;17.45;33.28;94589.97;5012466;28;20050;-48
2021/04/28 11:03:53;;;;;;;13.15;9.32;;;;;;;17.62;34.22;94593.69;5013641;28;20400;-49
2021/04/28 11:06:23;;;;;;;11.73;8.93;;;;;;;17.97;35.06;94584.22;5014414;28;20100;-48
2021/04/28 11:09:07;;;;;;;13.68;8.93;;;;;;;18.52;36.16;94582.25;5013943;28;20100;-49
2021/04/28 11:11:35;;;;;;;12.13;9.45;;;;;;;18.85;34.30;94586.03;5013301;28;20200;-50
2021/04/28 11:14:11;;;;;;;11.73;9.27;;;;;;;19.52;29.03;94585.94;5013924;28;20479;-47
2021/04/28 11:17:01;;;;;;;12.25;8.77;;;;;;;21.68;27.32;94585.91;5014178;28;20062;-47
2021/04/28 11:19:37;;;;;;;14.73;9.18;;;;;;;21.13;26.49;94596.03;5014045;28;20060;-49
2021/04/28 11:22:07;;;;;;;11.02;8.38;;;;;;;23.38;23.68;94583.69;5013374;28;20060;-48
2021/04/28 11:25:07;;;;;;;10.98;9.05;;;;;;;22.57;24.98;94580.47;5013952;28;20046;-49
2021/04/28 11:27:56;;;;;;;10.75;8.45;;;;;;;21.87;23.68;94575.91;5001163;28;20053;-47
2021/04/28 11:30:29;;;;;;;15.68;10.63;;;;;;;22.69;23.50;94580.91;5025151;28;20080;-47
2021/04/28 11:33:14;;;;;;;11.10;7.97;;;;;;;22.92;23.48;94580.53;5049483;28;20501;-48
2021/04/28 11:36:07;;;;;;;9.63;6.97;;;;;;;22.29;23.85;94584.13;5045471;28;20053;-50
2021/04/28 11:38:38;;;;;;;11.63;7.88;;;;;;;22.55;23.47;94579.34;5024457;28;20056;-50
2021/04/28 11:41:11;;;;;;;12.10;8.38;;;;;;;23.03;22.63;94575.44;5030880;28;20061;-49
2021/04/28 11:43:42;;;;;;;13.25;8.05;;;;;;;23.12;23.48;94583.03;5028852;28;20046;-48